createdAt,value
2019-02-20T00:00:03.430Z,27.65
2019-02-20T00:01:03.066Z,26.34
2019-02-20T00:02:03.259Z,24.11
2019-02-20T00:03:03.189Z,25.08
2019-02-20T00:04:03.746Z,31.45
2019-02-20T00:05:03.562Z,21.77
2019-02-20T00:06:03.579Z,26.04
2019-02-20T00:07:03.404Z,20.57
2019-02-20T00:08:02.856Z,20.32
2019-02-20T00:09:03.575Z,21.43
2019-02-20T00:10:03.163Z,20.61
2019-02-20T00:11:03.242Z,19.35
2019-02-20T00:12:02.851Z,23.42
2019-02-20T00:13:03.227Z,23.82
2019-02-20T00:14:02.969Z,20.16
2019-02-20T00:15:03.617Z,20.16
2019-02-20T00:16:02.775Z,20.54
2019-02-20T00:17:03.067Z,24.62
2019-02-20T00:18:02.617Z,24.62
2019-02-20T00:19:02.901Z,20.58
2019-02-20T00:20:03.165Z,22.09
2019-02-20T00:21:02.658Z,22.09
2019-02-20T00:22:03.080Z,22.36
2019-02-20T00:23:02.817Z,19.15
2019-02-20T00:24:03.188Z,22.78
2019-02-20T00:25:02.980Z,21.06
2019-02-20T00:26:02.767Z,22.79
2019-02-20T00:27:03.001Z,20.12
2019-02-20T00:28:03.560Z,20.35
2019-02-20T00:29:02.786Z,26.2
2019-02-20T00:30:03.053Z,22.05
2019-02-20T00:31:02.799Z,24.6
2019-02-20T00:32:02.923Z,19.82
2019-02-20T00:33:02.538Z,22.05
2019-02-20T00:34:03.115Z,19.92
2019-02-20T00:35:02.853Z,22.01
2019-02-20T00:36:03.058Z,18.02
2019-02-20T00:37:02.723Z,19.08
2019-02-20T00:38:03.142Z,17.11
2019-02-20T00:39:02.750Z,19.06
2019-02-20T00:40:03.079Z,16.95
2019-02-20T00:41:02.748Z,14.91
2019-02-20T00:42:03.361Z,16.55
2019-02-20T00:43:02.744Z,18.23
2019-02-20T00:44:02.953Z,16.75
2019-02-20T00:45:02.710Z,15.62
2019-02-20T00:46:02.635Z,15.92
2019-02-20T00:47:03.698Z,20.65
2019-02-20T00:48:03.239Z,18.76
2019-02-20T00:49:02.948Z,18.26
2019-02-20T00:50:03.728Z,18.31
2019-02-20T00:51:03.361Z,16.25
2019-02-20T00:52:03.555Z,20.63
2019-02-20T00:53:03.230Z,19.43
2019-02-20T00:54:03.345Z,17.72
2019-02-20T00:55:03.105Z,20.79
2019-02-20T00:56:03.448Z,23.1
2019-02-20T00:57:02.728Z,15.87
2019-02-20T00:58:03.428Z,15.75
2019-02-20T00:59:03.458Z,17.04
2019-02-20T01:00:03.371Z,19.43
2019-02-20T01:01:02.909Z,16.38
2019-02-20T01:02:02.534Z,23.13
2019-02-20T01:03:03.529Z,17.99
2019-02-20T01:04:02.827Z,20.03
2019-02-20T01:05:03.492Z,18.4
2019-02-20T01:06:04.884Z,16.12
2019-02-20T01:07:02.945Z,16.12
2019-02-20T01:08:03.274Z,17.61
2019-02-20T01:09:03.285Z,15.72
2019-02-20T01:10:03.345Z,15.72
2019-02-20T01:11:03.011Z,17.69
2019-02-20T01:12:03.333Z,19.17
2019-02-20T01:13:02.853Z,19.17
2019-02-20T01:14:03.710Z,17.06
2019-02-20T01:15:03.833Z,17.79
2019-02-20T01:16:03.260Z,18.64
2019-02-20T01:17:03.601Z,15.66
2019-02-20T01:18:03.162Z,17.21
2019-02-20T01:19:03.712Z,21.85
2019-02-20T01:20:03.219Z,19.75
2019-02-20T01:21:02.825Z,19.5
2019-02-20T01:22:03.128Z,21.09
2019-02-20T01:23:03.535Z,19.63
2019-02-20T01:24:03.112Z,20.06
2019-02-20T01:25:03.789Z,18.2
2019-02-20T01:26:02.888Z,22.86
2019-02-20T01:27:03.446Z,16.02
2019-02-20T01:28:02.649Z,19.38
2019-02-20T01:29:03.114Z,17.89
2019-02-20T01:30:03.654Z,19.08
2019-02-20T01:31:03.299Z,20.84
2019-02-20T01:32:02.709Z,19.62
2019-02-20T01:33:03.024Z,19
2019-02-20T01:34:03.579Z,18.39
2019-02-20T01:35:02.884Z,18.1
2019-02-20T01:36:03.238Z,20.45
2019-02-20T01:37:02.997Z,20.72
2019-02-20T01:38:02.801Z,22.36
2019-02-20T01:39:02.743Z,21.03
2019-02-20T01:40:03.974Z,18.78
2019-02-20T01:41:02.615Z,21.25
2019-02-20T01:42:02.665Z,20.55
2019-02-20T01:43:03.234Z,20.33
2019-02-20T01:44:03.477Z,23.36
2019-02-20T01:45:02.993Z,24.96
2019-02-20T01:46:03.668Z,19.55
2019-02-20T01:47:03.312Z,20.75
2019-02-20T01:48:03.029Z,22.16
2019-02-20T01:49:03.249Z,17.98
2019-02-20T01:50:02.953Z,21.95
2019-02-20T01:51:03.271Z,19.57
2019-02-20T01:52:02.972Z,21.03
2019-02-20T01:53:09.970Z,27.73
2019-02-20T01:54:02.680Z,20.37
2019-02-20T01:55:03.180Z,20.37
2019-02-20T01:56:02.793Z,21.15
2019-02-20T01:57:03.436Z,20.42
2019-02-20T01:58:02.879Z,20.42
2019-02-20T01:59:02.932Z,18.39
2019-02-20T02:00:03.099Z,23.04
2019-02-20T02:01:03.440Z,23.04
2019-02-20T02:02:02.963Z,22.84
2019-02-20T02:03:04.149Z,22.14
2019-02-20T02:04:03.101Z,23.45
2019-02-20T02:05:03.657Z,20.56
2019-02-20T02:06:03.628Z,20.74
2019-02-20T02:07:02.820Z,21.76
2019-02-20T02:08:03.710Z,19.16
2019-02-20T02:09:03.253Z,20.42
2019-02-20T02:10:03.900Z,20.31
2019-02-20T02:11:03.537Z,20.56
2019-02-20T02:12:02.969Z,19.78
2019-02-20T02:13:03.599Z,20.96
2019-02-20T02:14:02.964Z,18.8
2019-02-20T02:15:03.354Z,18.68
2019-02-20T02:16:02.895Z,19.83
2019-02-20T02:17:03.016Z,26.75
2019-02-20T02:18:03.419Z,17.46
2019-02-20T02:19:03.029Z,20.1
2019-02-20T02:20:03.424Z,21.04
2019-02-20T02:21:02.799Z,21.4
2019-02-20T02:22:03.130Z,22.8
2019-02-20T02:23:03.012Z,20.12
2019-02-20T02:24:03.459Z,24.25
2019-02-20T02:25:02.845Z,23.19
2019-02-20T02:26:10.605Z,25.67
2019-02-20T02:27:03.691Z,30.94
2019-02-20T02:28:03.040Z,21.68
2019-02-20T02:29:03.373Z,22.03
2019-02-20T02:30:03.079Z,20.71
2019-02-20T02:31:03.429Z,19.61
2019-02-20T02:32:03.122Z,23.52
2019-02-20T02:33:03.036Z,25.68
2019-02-20T02:34:02.810Z,22.37
2019-02-20T02:35:03.087Z,21.81
2019-02-20T02:36:02.802Z,20.68
2019-02-20T02:37:03.239Z,29.91
2019-02-20T02:38:03.137Z,23.32
2019-02-20T02:39:03.297Z,24.09
2019-02-20T02:40:03.160Z,24.35
2019-02-20T02:41:03.529Z,23.91
2019-02-20T02:42:03.262Z,26.48
2019-02-20T02:43:03.433Z,28.42
2019-02-20T02:44:03.062Z,21.64
2019-02-20T02:45:03.123Z,21.09
2019-02-20T02:46:02.778Z,26.7
2019-02-20T02:47:03.067Z,26.7
2019-02-20T02:48:03.530Z,25.47
2019-02-20T02:49:02.892Z,24.49
2019-02-20T02:50:02.785Z,24.49
2019-02-20T02:51:02.718Z,25.12
2019-02-20T02:52:03.474Z,23.11
2019-02-20T02:53:03.240Z,27.36
2019-02-20T02:54:03.003Z,25.66
2019-02-20T02:55:03.468Z,28.74
2019-02-20T02:56:03.199Z,25.29
2019-02-20T02:57:02.988Z,21.84
2019-02-20T02:58:03.249Z,25.06
2019-02-20T02:59:02.738Z,24.69
2019-02-20T03:00:03.344Z,23.69
2019-02-20T03:01:02.831Z,23.36
2019-02-20T03:02:02.444Z,20.46
2019-02-20T03:03:03.356Z,26.19
2019-02-20T03:04:03.519Z,27.9
2019-02-20T03:05:03.277Z,24.86
2019-02-20T03:06:02.780Z,27.73
2019-02-20T03:07:03.497Z,26.18
2019-02-20T03:08:02.929Z,28.65
2019-02-20T03:09:03.689Z,23.85
2019-02-20T03:10:02.991Z,25.05
2019-02-20T03:11:03.262Z,20.05
2019-02-20T03:12:02.678Z,29.59
2019-02-20T03:13:07.004Z,26.28
2019-02-20T03:14:03.008Z,23.65
2019-02-20T03:15:02.886Z,21.79
2019-02-20T03:16:03.354Z,22.15
2019-02-20T03:17:03.518Z,23.09
2019-02-20T03:18:02.914Z,22.59
2019-02-20T03:19:03.217Z,23.13
2019-02-20T03:20:02.972Z,26.34
2019-02-20T03:21:03.030Z,24.86
2019-02-20T03:22:02.860Z,33.42
2019-02-20T03:23:03.264Z,28.82
2019-02-20T03:24:02.561Z,25.85
2019-02-20T03:25:03.486Z,26.19
2019-02-20T03:26:03.110Z,27.64
2019-02-20T03:27:03.806Z,21.72
2019-02-20T03:28:03.305Z,31.24
2019-02-20T03:29:03.528Z,22.74
2019-02-20T03:30:03.055Z,24.21
2019-02-20T03:31:03.708Z,24.88
2019-02-20T03:32:03.059Z,24.34
2019-02-20T03:33:03.530Z,25.6
2019-02-20T03:34:03.431Z,30.61
2019-02-20T03:35:03.517Z,30.61
2019-02-20T03:36:03.112Z,23.38
2019-02-20T03:37:03.254Z,23.54
2019-02-20T03:38:02.801Z,23.54
2019-02-20T03:39:03.361Z,22.56
2019-02-20T03:40:02.819Z,23.42
2019-02-20T03:41:03.385Z,23.46
2019-02-20T03:42:02.794Z,25.36
2019-02-20T03:43:03.464Z,25.63
2019-02-20T03:44:02.889Z,26.24
2019-02-20T03:45:03.524Z,27.22
2019-02-20T03:46:03.335Z,27.67
2019-02-20T03:47:02.867Z,27.64
2019-02-20T03:48:03.277Z,25.72
2019-02-20T03:49:03.635Z,23.45
2019-02-20T03:50:03.641Z,28.58
2019-02-20T03:51:03.285Z,26.61
2019-02-20T03:52:02.864Z,29.49
2019-02-20T03:53:03.512Z,26.7
2019-02-20T03:54:02.658Z,22.65
2019-02-20T03:55:03.298Z,26.01
2019-02-20T03:56:02.651Z,24.61
2019-02-20T03:57:03.321Z,25.84
2019-02-20T03:58:03.674Z,29.36
2019-02-20T03:59:03.536Z,27.71
2019-02-20T04:00:02.935Z,24.06
2019-02-20T04:01:03.466Z,30.08
2019-02-20T04:02:03.211Z,27.27
2019-02-20T04:03:02.783Z,27.51
2019-02-20T04:04:03.403Z,23.06
2019-02-20T04:05:03.672Z,26
2019-02-20T04:06:03.419Z,25.75
2019-02-20T04:07:02.845Z,28.18
2019-02-20T04:08:03.320Z,28.29
2019-02-20T04:09:03.488Z,26.46
2019-02-20T04:10:03.505Z,25.92
2019-02-20T04:11:02.903Z,24.6
2019-02-20T04:12:02.616Z,23.27
2019-02-20T04:13:02.936Z,28.1
2019-02-20T04:14:02.793Z,22.47
2019-02-20T04:15:03.127Z,26.91
2019-02-20T04:16:03.593Z,22.85
2019-02-20T04:17:03.193Z,24.49
2019-02-20T04:18:02.947Z,19.14
2019-02-20T04:19:03.274Z,26.72
2019-02-20T04:20:02.843Z,25.41
2019-02-20T04:21:03.044Z,23.51
2019-02-20T04:22:02.770Z,24.75
2019-02-20T04:23:03.511Z,27.24
2019-02-20T04:24:03.119Z,25.68
2019-02-20T04:25:03.233Z,25.68
2019-02-20T04:26:03.407Z,23.21
2019-02-20T04:27:02.807Z,23.21
2019-02-20T04:28:03.378Z,25.55
2019-02-20T04:29:02.856Z,27.14
2019-02-20T04:30:03.512Z,27.14
2019-02-20T04:31:03.316Z,20.09
2019-02-20T04:32:03.320Z,22.78
2019-02-20T04:33:02.753Z,22.78
2019-02-20T04:34:02.924Z,24.08
2019-02-20T04:35:02.788Z,25.12
2019-02-20T04:36:02.860Z,28.85
2019-02-20T04:37:02.702Z,25.32
2019-02-20T04:38:03.176Z,25.72
2019-02-20T04:39:03.638Z,31.98
2019-02-20T04:40:03.054Z,37.39
2019-02-20T04:41:03.497Z,35.56
2019-02-20T04:42:03.284Z,36.07
2019-02-20T04:43:02.887Z,36.84
2019-02-20T04:44:03.295Z,34.56
2019-02-20T04:45:03.018Z,32.21
2019-02-20T04:46:03.259Z,29.7
2019-02-20T04:47:02.873Z,29.29
2019-02-20T04:48:03.503Z,27.62
2019-02-20T04:49:03.193Z,29.63
2019-02-20T04:50:03.525Z,31.27
2019-02-20T04:51:02.896Z,27.7
2019-02-20T04:52:03.180Z,28.18
2019-02-20T04:53:03.795Z,26.93
2019-02-20T04:54:12.611Z,22.2
2019-02-20T04:55:02.894Z,25.05
2019-02-20T04:56:03.541Z,28.45
2019-02-20T04:57:02.892Z,27.34
2019-02-20T04:58:03.459Z,27.15
2019-02-20T04:59:02.863Z,25.96
2019-02-20T05:00:03.759Z,27.18
2019-02-20T05:01:02.816Z,27.46
2019-02-20T05:02:03.498Z,26.46
2019-02-20T05:03:02.810Z,25.75
2019-02-20T05:04:03.659Z,28.17
2019-02-20T05:05:02.921Z,24.9
2019-02-20T05:06:03.289Z,25.66
2019-02-20T05:07:03.251Z,27.14
2019-02-20T05:08:03.026Z,27.25
2019-02-20T05:09:03.183Z,27.68
2019-02-20T05:10:02.972Z,21.15
2019-02-20T05:11:03.181Z,27.2
2019-02-20T05:12:02.600Z,26.06
2019-02-20T05:13:03.457Z,25.49
2019-02-20T05:14:03.703Z,24.21
2019-02-20T05:15:02.938Z,24.21
2019-02-20T05:16:03.033Z,23.49
2019-02-20T05:17:03.689Z,23.1
2019-02-20T05:18:03.547Z,23.1
2019-02-20T05:19:03.791Z,29.86
2019-02-20T05:20:02.783Z,29.86
2019-02-20T05:21:03.370Z,34.24
2019-02-20T05:22:03.137Z,33.38
2019-02-20T05:23:03.043Z,26.14
2019-02-20T05:24:03.130Z,28.33
2019-02-20T05:25:03.791Z,26.24
2019-02-20T05:26:02.902Z,27.98
2019-02-20T05:27:03.506Z,29.68
2019-02-20T05:28:02.694Z,28.89
2019-02-20T05:29:03.330Z,27.25
2019-02-20T05:30:03.850Z,30.52
2019-02-20T05:31:03.248Z,26.55
2019-02-20T05:32:03.132Z,26.55
2019-02-20T05:33:03.211Z,25.75
2019-02-20T05:34:02.814Z,24.16
2019-02-20T05:35:03.534Z,22.63
2019-02-20T05:36:03.088Z,29.07
2019-02-20T05:37:03.655Z,28.36
2019-02-20T05:38:03.047Z,31.71
2019-02-20T05:39:03.523Z,31.5
2019-02-20T05:40:03.446Z,29.11
2019-02-20T05:41:02.931Z,28.51
2019-02-20T05:42:03.164Z,25.38
2019-02-20T05:43:03.146Z,27.95
2019-02-20T05:44:03.386Z,28.53
2019-02-20T05:45:03.301Z,29.44
2019-02-20T05:46:03.032Z,26.56
2019-02-20T05:47:03.366Z,25.55
2019-02-20T05:48:02.851Z,26.9
2019-02-20T05:49:03.617Z,26.1
2019-02-20T05:50:03.186Z,31.68
2019-02-20T05:51:03.542Z,25.3
2019-02-20T05:52:02.704Z,24.77
2019-02-20T05:53:03.174Z,27.79
2019-02-20T05:54:02.771Z,23.96
2019-02-20T05:55:03.239Z,26.74
2019-02-20T05:56:03.338Z,24.41
2019-02-20T05:57:03.636Z,24.93
2019-02-20T05:58:03.112Z,29.72
2019-02-20T05:59:03.385Z,28.45
2019-02-20T06:00:02.918Z,28.45
2019-02-20T06:01:03.300Z,29.22
2019-02-20T06:02:02.912Z,24.83
2019-02-20T06:03:04.842Z,24.83
2019-02-20T06:04:03.578Z,28.28
2019-02-20T06:05:03.381Z,28.28
2019-02-20T06:06:02.683Z,31.09
2019-02-20T06:07:03.279Z,29.81
2019-02-20T06:08:03.684Z,27.52
2019-02-20T06:09:03.590Z,27.95
2019-02-20T06:10:02.708Z,27.74
2019-02-20T06:11:12.160Z,30.55
2019-02-20T06:12:03.723Z,27.88
2019-02-20T06:13:03.169Z,29.45
2019-02-20T06:14:03.460Z,26.94
2019-02-20T06:15:03.347Z,26.82
2019-02-20T06:16:03.110Z,31.98
2019-02-20T06:17:03.252Z,24.24
2019-02-20T06:18:04.133Z,28.46
2019-02-20T06:19:03.392Z,31.78
2019-02-20T06:20:02.605Z,26.69
2019-02-20T06:21:02.756Z,27.24
2019-02-20T06:22:02.833Z,26.59
2019-02-20T06:23:13.533Z,30.26
2019-02-20T06:24:02.982Z,26.88
2019-02-20T06:25:03.653Z,27.68
2019-02-20T06:26:03.000Z,28.91
2019-02-20T06:27:03.152Z,33.19
2019-02-20T06:28:02.671Z,25.66
2019-02-20T06:29:03.104Z,30.79
2019-02-20T06:30:03.239Z,30.42
2019-02-20T06:31:03.529Z,26.04
2019-02-20T06:32:03.398Z,28.04
2019-02-20T06:33:03.131Z,28.58
2019-02-20T06:34:03.203Z,31.76
2019-02-20T06:35:02.679Z,32.84
2019-02-20T06:36:02.792Z,29.05
2019-02-20T06:37:03.143Z,26.87
2019-02-20T06:38:02.596Z,25.2
2019-02-20T06:39:02.997Z,31.87
2019-02-20T06:40:03.641Z,29.25
2019-02-20T06:41:03.058Z,27.92
2019-02-20T06:42:03.627Z,26.83
2019-02-20T06:43:03.072Z,31.25
2019-02-20T06:44:03.349Z,31.88
2019-02-20T06:45:03.139Z,31.61
2019-02-20T06:46:03.399Z,27.69
2019-02-20T06:47:02.952Z,34.14
2019-02-20T06:48:02.777Z,34.14
2019-02-20T06:49:02.994Z,27.81
2019-02-20T06:50:03.637Z,27.81
2019-02-20T06:51:03.330Z,27.76
2019-02-20T06:52:03.360Z,30.26
2019-02-20T06:53:02.933Z,30.26
2019-02-20T06:54:03.430Z,28.32
2019-02-20T06:55:03.055Z,28.32
2019-02-20T06:56:03.521Z,28.51
2019-02-20T06:57:02.802Z,24.83
2019-02-20T06:58:03.412Z,29.65
2019-02-20T06:59:02.890Z,29.26
2019-02-20T07:00:03.285Z,25.63
2019-02-20T07:01:03.259Z,30.85
2019-02-20T07:02:03.672Z,25.95
2019-02-20T07:03:02.879Z,28.55
2019-02-20T07:04:03.165Z,39.59
2019-02-20T07:05:03.365Z,29.4
2019-02-20T07:06:03.337Z,25.14
2019-02-20T07:07:03.016Z,30.21
2019-02-20T07:08:03.604Z,30.08
2019-02-20T07:09:03.216Z,27.9
2019-02-20T07:10:03.350Z,28.35
2019-02-20T07:11:03.568Z,28.08
2019-02-20T07:12:03.426Z,28.49
2019-02-20T07:13:03.446Z,28.86
2019-02-20T07:14:03.107Z,30.69
2019-02-20T07:15:03.726Z,31.29
2019-02-20T07:16:03.225Z,33.11
2019-02-20T07:17:03.580Z,28.7
2019-02-20T07:18:02.808Z,27.98
2019-02-20T07:19:03.371Z,33.23
2019-02-20T07:20:02.921Z,32.01
2019-02-20T07:21:03.010Z,32.51
2019-02-20T07:22:02.853Z,30.85
2019-02-20T07:23:03.503Z,33.24
2019-02-20T07:24:03.501Z,32.16
2019-02-20T07:25:03.715Z,28.39
2019-02-20T07:26:03.616Z,29.93
2019-02-20T07:27:03.208Z,29.76
2019-02-20T07:28:03.415Z,30.36
2019-02-20T07:29:03.171Z,31.34
2019-02-20T07:30:02.738Z,34.71
2019-02-20T07:31:03.194Z,29.85
2019-02-20T07:32:03.776Z,31.02
2019-02-20T07:33:03.223Z,36.83
2019-02-20T07:34:05.401Z,34.76
2019-02-20T07:35:02.952Z,33.64
2019-02-20T07:36:02.918Z,32.12
2019-02-20T07:37:03.443Z,35.34
2019-02-20T07:38:02.854Z,33.75
2019-02-20T07:39:03.538Z,38.71
2019-02-20T07:40:03.028Z,36.17
2019-02-20T07:41:03.511Z,36.17
2019-02-20T07:42:02.820Z,32.85
2019-02-20T07:43:03.350Z,33.83
2019-02-20T07:44:02.621Z,33.83
2019-02-20T07:45:03.332Z,34.96
2019-02-20T07:46:02.704Z,35.69
2019-02-20T07:47:03.476Z,33.63
2019-02-20T07:48:02.949Z,32.04
2019-02-20T07:49:03.439Z,31.75
2019-02-20T07:50:03.805Z,39.74
2019-02-20T07:51:03.465Z,32.56
2019-02-20T07:52:02.991Z,34.46
2019-02-20T07:53:03.362Z,34.78
2019-02-20T07:54:02.860Z,32.84
2019-02-20T07:55:12.524Z,33.72
2019-02-20T07:56:03.621Z,32.58
2019-02-20T07:57:03.191Z,32.44
2019-02-20T07:58:02.892Z,37.65
2019-02-20T07:59:03.536Z,34.09
2019-02-20T08:00:03.221Z,32.92
2019-02-20T08:01:03.704Z,35.5
2019-02-20T08:02:02.868Z,34.54
2019-02-20T08:03:03.125Z,30.95
2019-02-20T08:04:02.930Z,29.43
2019-02-20T08:05:03.750Z,34.13
2019-02-20T08:06:03.156Z,31.8
2019-02-20T08:07:03.584Z,28.12
2019-02-20T08:08:02.799Z,30.64
2019-02-20T08:09:03.534Z,30.42
2019-02-20T08:10:02.990Z,29.96
2019-02-20T08:11:03.157Z,27.94
2019-02-20T08:12:03.272Z,32.76
2019-02-20T08:13:03.075Z,38.89
2019-02-20T08:14:03.513Z,33.95
2019-02-20T08:15:03.019Z,34.13
2019-02-20T08:16:03.504Z,31.68
2019-02-20T08:17:02.961Z,32.22
2019-02-20T08:18:03.698Z,32.92
2019-02-20T08:19:03.082Z,32.09
2019-02-20T08:20:03.370Z,29.95
2019-02-20T08:21:02.947Z,27.31
2019-02-20T08:22:02.835Z,28.78
2019-02-20T08:23:03.019Z,33.6
2019-02-20T08:24:03.271Z,29.38
2019-02-20T08:25:03.057Z,30.9
2019-02-20T08:26:03.198Z,34.78
2019-02-20T08:27:02.650Z,32.95
2019-02-20T08:28:02.940Z,34.27
2019-02-20T08:29:03.480Z,37.11
2019-02-20T08:30:03.039Z,40.74
2019-02-20T08:31:03.595Z,30.37
2019-02-20T08:32:02.833Z,30.37
2019-02-20T08:33:03.319Z,38.09
2019-02-20T08:34:03.328Z,34.69
2019-02-20T08:35:03.323Z,34.69
2019-02-20T08:36:02.821Z,35.95
2019-02-20T08:37:03.363Z,34.42
2019-02-20T08:38:03.760Z,32.19
2019-02-20T08:39:03.007Z,36.05
2019-02-20T08:40:03.642Z,32.37
2019-02-20T08:41:03.224Z,31.75
2019-02-20T08:42:03.432Z,38.01
2019-02-20T08:43:03.154Z,36.28
2019-02-20T08:44:03.173Z,36.61
2019-02-20T08:45:02.649Z,32.91
2019-02-20T08:46:03.028Z,33.52
2019-02-20T08:47:02.911Z,36.89
2019-02-20T08:48:03.085Z,40.24
2019-02-20T08:49:03.002Z,33.22
2019-02-20T08:50:03.172Z,34.57
2019-02-20T08:51:02.634Z,37.58
2019-02-20T08:52:03.234Z,41.09
2019-02-20T08:53:03.226Z,30.61
2019-02-20T08:54:04.382Z,45.19
2019-02-20T08:55:03.546Z,30.53
2019-02-20T08:56:02.935Z,30.78
2019-02-20T08:57:03.184Z,35.31
2019-02-20T08:58:02.752Z,34.56
2019-02-20T08:59:03.159Z,32.45
2019-02-20T09:00:03.659Z,35.77
2019-02-20T09:01:03.108Z,34.08
2019-02-20T09:02:03.647Z,38.12
2019-02-20T09:03:03.029Z,33.91
2019-02-20T09:04:02.877Z,34.58
2019-02-20T09:05:03.109Z,33.55
2019-02-20T09:06:03.675Z,34.28
2019-02-20T09:07:02.960Z,30.74
2019-02-20T09:08:03.317Z,30.82
2019-02-20T09:09:03.162Z,38.81
2019-02-20T09:10:03.590Z,37.5
2019-02-20T09:11:02.985Z,32.07
2019-02-20T09:12:03.340Z,35.99
2019-02-20T09:13:02.723Z,33.49
2019-02-20T09:14:03.279Z,31.06
2019-02-20T09:15:03.083Z,33.91
2019-02-20T09:16:03.234Z,32.14
2019-02-20T09:17:02.695Z,30.22
2019-02-20T09:18:03.416Z,32.33
2019-02-20T09:19:03.719Z,37.22
2019-02-20T09:20:02.941Z,37.22
2019-02-20T09:21:03.537Z,33.39
2019-02-20T09:22:02.733Z,33.39
2019-02-20T09:23:03.503Z,34.37
2019-02-20T09:24:02.877Z,30.07
2019-02-20T09:25:03.512Z,34.17
2019-02-20T09:26:02.841Z,32.34
2019-02-20T09:27:03.395Z,36.79
2019-02-20T09:28:02.688Z,34.49
2019-02-20T09:29:03.115Z,35.25
2019-02-20T09:30:02.763Z,34.05
2019-02-20T09:31:03.195Z,38.14
2019-02-20T09:32:02.459Z,36.84
2019-02-20T09:33:03.197Z,36.72
2019-02-20T09:34:03.673Z,35.85
2019-02-20T09:35:03.119Z,40.45
2019-02-20T09:36:03.502Z,39.8
2019-02-20T09:37:02.908Z,35.38
2019-02-20T09:38:02.613Z,38.18
2019-02-20T09:39:03.175Z,42.14
2019-02-20T09:40:03.759Z,39.92
2019-02-20T09:41:02.845Z,42.25
2019-02-20T09:42:03.514Z,39.51
2019-02-20T09:43:02.896Z,40.09
2019-02-20T09:44:03.444Z,41.3
2019-02-20T09:45:02.888Z,36.79
2019-02-20T09:46:03.750Z,38.35
2019-02-20T09:47:02.723Z,40.05
2019-02-20T09:48:03.391Z,34.52
2019-02-20T09:49:02.577Z,31.94
2019-02-20T09:50:03.169Z,25.42
2019-02-20T09:51:03.607Z,33.38
2019-02-20T09:52:03.179Z,31.38
2019-02-20T09:53:03.223Z,29.15
2019-02-20T09:54:02.835Z,29.57
2019-02-20T09:55:03.064Z,34.41
2019-02-20T09:56:02.722Z,29.87
2019-02-20T09:57:02.889Z,32.98
2019-02-20T09:58:03.762Z,34.18
2019-02-20T09:59:02.777Z,32.75
2019-02-20T10:00:02.950Z,33.68
2019-02-20T10:01:04.053Z,33.49
2019-02-20T10:02:03.062Z,31.88
2019-02-20T10:03:03.601Z,26.46
2019-02-20T10:04:03.012Z,34.45
2019-02-20T10:05:03.493Z,30.58
2019-02-20T10:06:02.943Z,28.74
2019-02-20T10:07:03.274Z,26.66
2019-02-20T10:08:04.523Z,28.12
2019-02-20T10:09:03.044Z,34.54
2019-02-20T10:10:03.776Z,26.41
2019-02-20T10:11:02.871Z,28.91
2019-02-20T10:12:03.430Z,30.41
2019-02-20T10:13:02.989Z,30.41
2019-02-20T10:14:03.308Z,30.46
2019-02-20T10:15:03.015Z,29.87
2019-02-20T10:16:03.496Z,29.87
2019-02-20T10:17:03.308Z,30.98
2019-02-20T10:18:03.587Z,28.18
2019-02-20T10:19:02.836Z,28.67
2019-02-20T10:20:03.379Z,29.37
2019-02-20T10:21:02.750Z,27.06
2019-02-20T10:22:03.176Z,32.32
2019-02-20T10:23:02.690Z,28.38
2019-02-20T10:24:03.423Z,31.12
2019-02-20T10:25:02.773Z,33.26
2019-02-20T10:26:03.274Z,29.05
2019-02-20T10:27:03.277Z,33.64
2019-02-20T10:28:02.666Z,30.14
2019-02-20T10:29:03.285Z,32.15
2019-02-20T10:30:03.599Z,27.84
2019-02-20T10:31:03.133Z,29.62
2019-02-20T10:32:03.522Z,31.36
2019-02-20T10:33:03.005Z,31.55
2019-02-20T10:34:03.392Z,30.02
2019-02-20T10:35:02.849Z,27.15
2019-02-20T10:36:03.658Z,28.34
2019-02-20T10:37:03.441Z,28.71
2019-02-20T10:38:02.847Z,32.17
2019-02-20T10:39:03.121Z,28.51
2019-02-20T10:40:03.037Z,23.5
2019-02-20T10:41:03.231Z,27.84
2019-02-20T10:42:02.926Z,31.45
2019-02-20T10:43:03.712Z,27.43
2019-02-20T10:44:03.038Z,30.25
2019-02-20T10:45:03.289Z,33.96
2019-02-20T10:46:03.607Z,31.38
2019-02-20T10:47:03.041Z,31.76
2019-02-20T10:48:03.406Z,25.41
2019-02-20T10:49:03.193Z,23.93
2019-02-20T10:50:03.538Z,24.77
2019-02-20T10:51:03.057Z,24.34
2019-02-20T10:52:03.263Z,22.62
2019-02-20T10:53:03.773Z,26.18
2019-02-20T10:54:03.319Z,21.56
2019-02-20T10:55:02.949Z,22.99
2019-02-20T10:56:09.071Z,17.49
2019-02-20T10:57:03.669Z,17.49
2019-02-20T10:58:03.194Z,14.45
2019-02-20T10:59:02.736Z,14.45
2019-02-20T11:00:03.165Z,12.81
2019-02-20T11:01:02.885Z,11.96
2019-02-20T11:02:03.045Z,15.87
2019-02-20T11:03:03.379Z,16.64
2019-02-20T11:04:02.895Z,13.25
2019-02-20T11:05:03.270Z,12.33
2019-02-20T11:06:03.143Z,15.76
2019-02-20T11:07:03.466Z,20.32
2019-02-20T11:08:03.088Z,14.12
2019-02-20T11:09:03.278Z,13.35
2019-02-20T11:10:02.898Z,13.66
2019-02-20T11:11:03.068Z,15.06
2019-02-20T11:12:03.152Z,17.8
2019-02-20T11:13:03.119Z,13.36
2019-02-20T11:14:02.916Z,12.86
2019-02-20T11:15:03.299Z,14.3
2019-02-20T11:16:03.652Z,18.2
2019-02-20T11:17:02.753Z,15.47
2019-02-20T11:18:03.443Z,15.75
2019-02-20T11:19:02.894Z,15.4
2019-02-20T11:20:03.662Z,14.38
2019-02-20T11:21:02.778Z,12.73
2019-02-20T11:22:03.239Z,15.12
2019-02-20T11:23:02.864Z,16.19
2019-02-20T11:24:03.374Z,16.61
2019-02-20T11:25:03.659Z,14.05
2019-02-20T11:26:04.824Z,13.48
2019-02-20T11:27:02.885Z,16.6
2019-02-20T11:28:03.362Z,20.44
2019-02-20T11:29:03.639Z,14.71
2019-02-20T11:30:03.133Z,14.28
2019-02-20T11:31:03.559Z,17.47
2019-02-20T11:32:03.081Z,13.99
2019-02-20T11:33:03.481Z,14.02
2019-02-20T11:34:03.632Z,15.44
2019-02-20T11:35:03.234Z,14.45
2019-02-20T11:36:03.260Z,15.55
2019-02-20T11:37:02.837Z,17.31
2019-02-20T11:38:03.295Z,17.83
2019-02-20T11:39:02.897Z,17.96
2019-02-20T11:40:03.230Z,17.29
2019-02-20T11:41:03.308Z,17.19
2019-02-20T11:42:03.045Z,18.72
2019-02-20T11:43:03.334Z,18.89
2019-02-20T11:44:02.717Z,18.36
2019-02-20T11:45:03.021Z,13.52
2019-02-20T11:46:03.623Z,14.79
2019-02-20T11:47:03.110Z,15.46
2019-02-20T11:48:03.544Z,16.17
2019-02-20T11:49:02.829Z,15.11
2019-02-20T11:50:03.466Z,15.11
2019-02-20T11:51:02.905Z,20.99
2019-02-20T11:52:02.935Z,15.58
2019-02-20T11:53:03.238Z,15.58
2019-02-20T11:54:03.626Z,17.95
2019-02-20T11:55:02.998Z,16.98
2019-02-20T11:56:03.590Z,16.98
2019-02-20T11:57:02.933Z,17.61
2019-02-20T11:58:03.578Z,21.58
2019-02-20T11:59:02.645Z,16.86
2019-02-20T12:00:03.208Z,18.38
2019-02-20T12:01:03.373Z,19.34
2019-02-20T12:02:03.068Z,22.54
2019-02-20T12:03:03.618Z,20.22
2019-02-20T12:04:02.879Z,21.36
2019-02-20T12:05:03.070Z,22.25
2019-02-20T12:06:02.981Z,19.8
2019-02-20T12:07:02.831Z,21.33
2019-02-20T12:08:03.310Z,25.12
2019-02-20T12:09:02.816Z,17.71
2019-02-20T12:10:03.252Z,19.76
2019-02-20T12:11:03.443Z,23.52
2019-02-20T12:12:02.979Z,18.36
2019-02-20T12:13:03.301Z,18.73
2019-02-20T12:14:02.879Z,18.16
2019-02-20T12:15:03.455Z,16.77
2019-02-20T12:16:02.862Z,17.38
2019-02-20T12:17:03.958Z,19.49
2019-02-20T12:18:03.590Z,17.58
2019-02-20T12:19:02.923Z,18.49
2019-02-20T12:20:03.287Z,16.01
2019-02-20T12:21:02.895Z,15.48
2019-02-20T12:22:03.331Z,18.74
2019-02-20T12:23:02.736Z,18.48
2019-02-20T12:24:03.221Z,15.66
2019-02-20T12:25:02.891Z,17.66
2019-02-20T12:26:03.205Z,16
2019-02-20T12:27:03.362Z,15.79
2019-02-20T12:28:03.308Z,15.34
2019-02-20T12:29:03.605Z,15.56
2019-02-20T12:30:03.162Z,14.09
2019-02-20T12:31:03.223Z,12.09
2019-02-20T12:32:03.420Z,14.69
2019-02-20T12:33:03.641Z,14.02
2019-02-20T12:34:03.238Z,16.42
2019-02-20T12:35:03.578Z,12.02
2019-02-20T12:36:03.172Z,16.31
2019-02-20T12:37:03.587Z,12.45
2019-02-20T12:38:02.801Z,12.4
2019-02-20T12:39:03.088Z,12.4
2019-02-20T12:40:03.028Z,14.68
2019-02-20T12:41:03.175Z,14.68
2019-02-20T12:42:02.919Z,19.21
2019-02-20T12:43:03.553Z,13.66
2019-02-20T12:44:02.684Z,13.66
2019-02-20T12:45:03.289Z,13.96
2019-02-20T12:46:02.875Z,12.12
2019-02-20T12:47:03.153Z,10.84
2019-02-20T12:48:03.200Z,12.74
2019-02-20T12:49:03.711Z,15.12
2019-02-20T12:50:02.786Z,14.27
2019-02-20T12:51:03.107Z,13.97
2019-02-20T12:52:02.908Z,13.61
2019-02-20T12:53:03.127Z,12.24
2019-02-20T12:54:02.895Z,12.08